sensor_id;sensor_type;location;lat;lon;timestamp;temperature;humidity
52895;DHT22;38759;53.396;6.722;2023-05-14T00:01:34;11.90;99.90
52895;DHT22;38759;53.396;6.722;2023-05-14T00:04:01;11.90;99.90
52895;DHT22;38759;53.396;6.722;2023-05-14T00:06:27;11.90;99.90
52895;DHT22;38759;53.396;6.722;2023-05-14T00:08:53;11.90;99.90
52895;DHT22;38759;53.396;6.722;2023-05-14T00:11:18;11.80;99.90
52895;DHT22;38759;53.396;6.722;2023-05-14T00:13:45;11.80;99.90
52895;DHT22;38759;53.396;6.722;2023-05-14T00:16:11;11.80;99.90
52895;DHT22;38759;53.396;6.722;2023-05-14T00:18:36;11.80;99.90
52895;DHT22;38759;53.396;6.722;2023-05-14T00:21:02;11.80;99.90
52895;DHT22;38759;53.396;6.722;2023-05-14T00:23:28;11.70;99.90
52895;DHT22;38759;53.396;6.722;2023-05-14T00:25:53;11.70;99.90
52895;DHT22;38759;53.396;6.722;2023-05-14T00:28:19;11.70;99.90
52895;DHT22;38759;53.396;6.722;2023-05-14T00:30:45;11.70;99.90
52895;DHT22;38759;53.396;6.722;2023-05-14T00:33:11;11.70;99.90
52895;DHT22;38759;53.396;6.722;2023-05-14T00:35:36;11.60;99.90
52895;DHT22;38759;53.396;6.722;2023-05-14T00:38:02;11.60;99.90
52895;DHT22;38759;53.396;6.722;2023-05-14T00:40:28;11.60;99.90
52895;DHT22;38759;53.396;6.722;2023-05-14T00:42:55;11.60;99.90
52895;DHT22;38759;53.396;6.722;2023-05-14T00:45:21;11.60;99.90
52895;DHT22;38759;53.396;6.722;2023-05-14T00:47:47;11.60;99.90
52895;DHT22;38759;53.396;6.722;2023-05-14T00:50:14;11.60;99.90
52895;DHT22;38759;53.396;6.722;2023-05-14T00:52:40;11.60;99.90
52895;DHT22;38759;53.396;6.722;2023-05-14T00:55:07;11.60;99.90
52895;DHT22;38759;53.396;6.722;2023-05-14T00:57:34;11.60;99.90
52895;DHT22;38759;53.396;6.722;2023-05-14T01:00:01;11.60;99.90
52895;DHT22;38759;53.396;6.722;2023-05-14T01:02:26;11.60;99.90
52895;DHT22;38759;53.396;6.722;2023-05-14T01:04:52;11.60;99.90
52895;DHT22;38759;53.396;6.722;2023-05-14T01:07:25;11.50;99.90
52895;DHT22;38759;53.396;6.722;2023-05-14T01:09:59;11.60;99.90
52895;DHT22;38759;53.396;6.722;2023-05-14T01:12:49;11.50;99.90
52895;DHT22;38759;53.396;6.722;2023-05-14T01:15:21;11.50;99.90
52895;DHT22;38759;53.396;6.722;2023-05-14T01:17:58;11.50;99.90
52895;DHT22;38759;53.396;6.722;2023-05-14T01:20:25;11.50;99.90
52895;DHT22;38759;53.396;6.722;2023-05-14T01:22:50;11.50;99.90
52895;DHT22;38759;53.396;6.722;2023-05-14T01:25:16;11.40;99.90
52895;DHT22;38759;53.396;6.722;2023-05-14T01:30:35;11.40;99.90
52895;DHT22;38759;53.396;6.722;2023-05-14T01:33:08;11.40;99.90
52895;DHT22;38759;53.396;6.722;2023-05-14T01:35:35;11.40;99.90
52895;DHT22;38759;53.396;6.722;2023-05-14T01:38:03;11.40;99.90
52895;DHT22;38759;53.396;6.722;2023-05-14T01:40:31;11.40;99.90
52895;DHT22;38759;53.396;6.722;2023-05-14T01:42:57;11.40;99.90
52895;DHT22;38759;53.396;6.722;2023-05-14T01:45:23;11.40;99.90
52895;DHT22;38759;53.396;6.722;2023-05-14T01:47:49;11.40;99.90
52895;DHT22;38759;53.396;6.722;2023-05-14T01:50:16;11.40;99.90
52895;DHT22;38759;53.396;6.722;2023-05-14T01:52:41;11.50;99.90
52895;DHT22;38759;53.396;6.722;2023-05-14T01:55:07;11.40;99.90
52895;DHT22;38759;53.396;6.722;2023-05-14T01:57:33;11.50;99.90
52895;DHT22;38759;53.396;6.722;2023-05-14T01:59:59;11.50;99.90
52895;DHT22;38759;53.396;6.722;2023-05-14T02:02:25;11.50;99.90
52895;DHT22;38759;53.396;6.722;2023-05-14T02:04:50;11.50;99.90
52895;DHT22;38759;53.396;6.722;2023-05-14T02:07:16;11.50;99.90
52895;DHT22;38759;53.396;6.722;2023-05-14T02:09:42;11.50;99.90
52895;DHT22;38759;53.396;6.722;2023-05-14T02:12:08;11.50;99.90
52895;DHT22;38759;53.396;6.722;2023-05-14T02:14:35;11.50;99.90
52895;DHT22;38759;53.396;6.722;2023-05-14T02:17:01;11.50;99.90
52895;DHT22;38759;53.396;6.722;2023-05-14T02:19:28;11.50;99.90
52895;DHT22;38759;53.396;6.722;2023-05-14T02:21:54;11.50;99.90
52895;DHT22;38759;53.396;6.722;2023-05-14T02:24:19;11.50;99.90
52895;DHT22;38759;53.396;6.722;2023-05-14T02:26:45;11.50;99.90
52895;DHT22;38759;53.396;6.722;2023-05-14T02:29:11;11.50;99.90
52895;DHT22;38759;53.396;6.722;2023-05-14T02:31:37;11.40;99.90
52895;DHT22;38759;53.396;6.722;2023-05-14T02:34:03;11.40;99.90
52895;DHT22;38759;53.396;6.722;2023-05-14T02:36:29;11.40;99.90
52895;DHT22;38759;53.396;6.722;2023-05-14T02:38:57;11.50;99.90
52895;DHT22;38759;53.396;6.722;2023-05-14T02:41:23;11.40;99.90
52895;DHT22;38759;53.396;6.722;2023-05-14T02:43:48;11.40;99.90
52895;DHT22;38759;53.396;6.722;2023-05-14T02:46:14;11.40;99.90
52895;DHT22;38759;53.396;6.722;2023-05-14T02:48:39;11.30;99.90
52895;DHT22;38759;53.396;6.722;2023-05-14T02:51:05;11.40;99.90
52895;DHT22;38759;53.396;6.722;2023-05-14T02:53:32;11.30;99.90
52895;DHT22;38759;53.396;6.722;2023-05-14T02:55:57;11.30;99.90
52895;DHT22;38759;53.396;6.722;2023-05-14T02:58:23;11.30;99.90
52895;DHT22;38759;53.396;6.722;2023-05-14T03:00:49;11.30;99.90
52895;DHT22;38759;53.396;6.722;2023-05-14T03:03:14;11.30;99.90
52895;DHT22;38759;53.396;6.722;2023-05-14T03:05:40;11.20;99.90
52895;DHT22;38759;53.396;6.722;2023-05-14T03:08:05;11.20;99.90
52895;DHT22;38759;53.396;6.722;2023-05-14T03:10:31;11.20;99.90
52895;DHT22;38759;53.396;6.722;2023-05-14T03:12:57;11.10;99.90
52895;DHT22;38759;53.396;6.722;2023-05-14T03:15:23;11.10;99.90
52895;DHT22;38759;53.396;6.722;2023-05-14T03:17:48;11.20;99.90
52895;DHT22;38759;53.396;6.722;2023-05-14T03:20:14;11.10;99.90
52895;DHT22;38759;53.396;6.722;2023-05-14T03:22:40;11.10;99.90
52895;DHT22;38759;53.396;6.722;2023-05-14T03:25:05;11.10;99.90
52895;DHT22;38759;53.396;6.722;2023-05-14T03:27:31;11.10;99.90
52895;DHT22;38759;53.396;6.722;2023-05-14T03:29:58;11.10;99.90
52895;DHT22;38759;53.396;6.722;2023-05-14T03:32:23;11.10;99.90
52895;DHT22;38759;53.396;6.722;2023-05-14T03:34:49;11.00;99.90
52895;DHT22;38759;53.396;6.722;2023-05-14T03:37:15;11.10;99.90
52895;DHT22;38759;53.396;6.722;2023-05-14T03:39:41;11.00;99.90
52895;DHT22;38759;53.396;6.722;2023-05-14T03:42:06;11.00;99.90
52895;DHT22;38759;53.396;6.722;2023-05-14T03:44:32;11.00;99.90
52895;DHT22;38759;53.396;6.722;2023-05-14T03:46:57;11.10;99.90
52895;DHT22;38759;53.396;6.722;2023-05-14T03:49:23;11.00;99.90
52895;DHT22;38759;53.396;6.722;2023-05-14T03:51:49;11.10;99.90
52895;DHT22;38759;53.396;6.722;2023-05-14T03:54:15;11.00;99.90
52895;DHT22;38759;53.396;6.722;2023-05-14T03:56:40;11.00;99.90
52895;DHT22;38759;53.396;6.722;2023-05-14T03:59:06;11.00;99.90
52895;DHT22;38759;53.396;6.722;2023-05-14T04:01:32;11.10;99.90
52895;DHT22;38759;53.396;6.722;2023-05-14T04:03:57;11.10;99.90
52895;DHT22;38759;53.396;6.722;2023-05-14T04:06:23;11.10;99.90
52895;DHT22;38759;53.396;6.722;2023-05-14T04:08:49;11.10;99.90
52895;DHT22;38759;53.396;6.722;2023-05-14T04:11:14;11.10;99.90
52895;DHT22;38759;53.396;6.722;2023-05-14T04:13:40;11.10;99.90
52895;DHT22;38759;53.396;6.722;2023-05-14T04:16:06;11.20;99.90
52895;DHT22;38759;53.396;6.722;2023-05-14T04:18:31;11.20;99.90
52895;DHT22;38759;53.396;6.722;2023-05-14T04:21:00;11.20;99.90
52895;DHT22;38759;53.396;6.722;2023-05-14T04:23:26;11.20;99.90
52895;DHT22;38759;53.396;6.722;2023-05-14T04:25:51;11.20;99.90
52895;DHT22;38759;53.396;6.722;2023-05-14T04:28:17;11.30;99.90
52895;DHT22;38759;53.396;6.722;2023-05-14T04:30:43;11.30;99.90
52895;DHT22;38759;53.396;6.722;2023-05-14T04:33:09;11.30;99.90
52895;DHT22;38759;53.396;6.722;2023-05-14T04:35:34;11.30;99.90
52895;DHT22;38759;53.396;6.722;2023-05-14T04:38:00;11.30;99.90
52895;DHT22;38759;53.396;6.722;2023-05-14T04:40:25;11.40;99.90
52895;DHT22;38759;53.396;6.722;2023-05-14T04:42:51;11.40;99.90
52895;DHT22;38759;53.396;6.722;2023-05-14T04:45:17;11.40;99.90
52895;DHT22;38759;53.396;6.722;2023-05-14T04:47:44;11.50;99.90
52895;DHT22;38759;53.396;6.722;2023-05-14T04:50:10;11.50;99.90
52895;DHT22;38759;53.396;6.722;2023-05-14T04:52:36;11.50;99.90
52895;DHT22;38759;53.396;6.722;2023-05-14T04:55:02;11.50;99.90
52895;DHT22;38759;53.396;6.722;2023-05-14T04:57:27;11.60;99.90
52895;DHT22;38759;53.396;6.722;2023-05-14T04:59:53;11.60;99.90
52895;DHT22;38759;53.396;6.722;2023-05-14T05:02:19;11.60;99.90
52895;DHT22;38759;53.396;6.722;2023-05-14T05:04:44;11.60;99.90
52895;DHT22;38759;53.396;6.722;2023-05-14T05:07:11;11.70;99.90
52895;DHT22;38759;53.396;6.722;2023-05-14T05:09:37;11.70;99.90
52895;DHT22;38759;53.396;6.722;2023-05-14T05:12:03;11.70;99.90
52895;DHT22;38759;53.396;6.722;2023-05-14T05:14:29;11.80;99.90
52895;DHT22;38759;53.396;6.722;2023-05-14T05:16:55;11.70;99.90
52895;DHT22;38759;53.396;6.722;2023-05-14T05:19:21;11.80;99.90
52895;DHT22;38759;53.396;6.722;2023-05-14T05:21:47;11.80;99.90
52895;DHT22;38759;53.396;6.722;2023-05-14T05:24:12;11.80;99.90
52895;DHT22;38759;53.396;6.722;2023-05-14T05:26:38;11.90;99.90
52895;DHT22;38759;53.396;6.722;2023-05-14T05:29:04;11.90;99.90
52895;DHT22;38759;53.396;6.722;2023-05-14T05:31:30;12.00;99.90
52895;DHT22;38759;53.396;6.722;2023-05-14T05:33:58;12.00;99.90
52895;DHT22;38759;53.396;6.722;2023-05-14T05:36:24;12.10;99.90
52895;DHT22;38759;53.396;6.722;2023-05-14T05:38:50;12.10;99.90
52895;DHT22;38759;53.396;6.722;2023-05-14T05:41:16;12.10;99.90
52895;DHT22;38759;53.396;6.722;2023-05-14T05:43:41;12.20;99.90
52895;DHT22;38759;53.396;6.722;2023-05-14T05:46:07;12.20;99.90
52895;DHT22;38759;53.396;6.722;2023-05-14T05:48:33;12.30;99.90
52895;DHT22;38759;53.396;6.722;2023-05-14T05:50:58;12.30;99.90
52895;DHT22;38759;53.396;6.722;2023-05-14T05:53:24;12.40;99.90
52895;DHT22;38759;53.396;6.722;2023-05-14T05:55:50;12.40;99.90
52895;DHT22;38759;53.396;6.722;2023-05-14T05:58:19;12.50;99.90
52895;DHT22;38759;53.396;6.722;2023-05-14T06:00:45;12.50;99.90
52895;DHT22;38759;53.396;6.722;2023-05-14T06:03:14;12.50;99.90
52895;DHT22;38759;53.396;6.722;2023-05-14T06:05:39;12.60;99.90
52895;DHT22;38759;53.396;6.722;2023-05-14T06:08:05;12.60;99.90
52895;DHT22;38759;53.396;6.722;2023-05-14T06:10:31;12.70;99.90
52895;DHT22;38759;53.396;6.722;2023-05-14T06:12:58;12.80;99.90
52895;DHT22;38759;53.396;6.722;2023-05-14T06:15:24;12.80;99.90
52895;DHT22;38759;53.396;6.722;2023-05-14T06:17:50;12.90;99.90
52895;DHT22;38759;53.396;6.722;2023-05-14T06:20:15;13.00;99.90
52895;DHT22;38759;53.396;6.722;2023-05-14T06:22:41;13.00;99.90
52895;DHT22;38759;53.396;6.722;2023-05-14T06:25:07;13.10;99.90
52895;DHT22;38759;53.396;6.722;2023-05-14T06:27:33;13.10;99.90
52895;DHT22;38759;53.396;6.722;2023-05-14T06:29:58;13.20;99.90
52895;DHT22;38759;53.396;6.722;2023-05-14T06:32:24;13.30;99.90
52895;DHT22;38759;53.396;6.722;2023-05-14T06:34:50;13.40;99.90
52895;DHT22;38759;53.396;6.722;2023-05-14T06:37:15;13.40;99.90
52895;DHT22;38759;53.396;6.722;2023-05-14T06:39:41;13.50;99.90
52895;DHT22;38759;53.396;6.722;2023-05-14T06:42:15;13.60;99.90
52895;DHT22;38759;53.396;6.722;2023-05-14T06:44:41;13.70;99.90
52895;DHT22;38759;53.396;6.722;2023-05-14T06:47:07;13.70;99.90
52895;DHT22;38759;53.396;6.722;2023-05-14T06:49:35;13.80;99.90
52895;DHT22;38759;53.396;6.722;2023-05-14T06:52:01;13.90;99.90
52895;DHT22;38759;53.396;6.722;2023-05-14T06:54:28;13.90;99.90
52895;DHT22;38759;53.396;6.722;2023-05-14T06:56:54;14.00;99.90
52895;DHT22;38759;53.396;6.722;2023-05-14T06:59:20;14.10;99.90
52895;DHT22;38759;53.396;6.722;2023-05-14T07:01:46;14.10;99.90
52895;DHT22;38759;53.396;6.722;2023-05-14T07:04:11;14.20;99.90
52895;DHT22;38759;53.396;6.722;2023-05-14T07:06:37;14.30;99.90
52895;DHT22;38759;53.396;6.722;2023-05-14T07:09:03;14.30;99.90
52895;DHT22;38759;53.396;6.722;2023-05-14T07:11:29;14.40;99.90
52895;DHT22;38759;53.396;6.722;2023-05-14T07:13:54;14.40;99.90
52895;DHT22;38759;53.396;6.722;2023-05-14T07:16:20;14.40;99.90
52895;DHT22;38759;53.396;6.722;2023-05-14T07:18:46;14.50;99.90
52895;DHT22;38759;53.396;6.722;2023-05-14T07:21:11;14.50;99.90
52895;DHT22;38759;53.396;6.722;2023-05-14T07:23:37;14.50;99.90
52895;DHT22;38759;53.396;6.722;2023-05-14T07:26:04;14.50;99.90
52895;DHT22;38759;53.396;6.722;2023-05-14T07:28:30;14.50;99.90
52895;DHT22;38759;53.396;6.722;2023-05-14T07:30:56;14.50;99.90
52895;DHT22;38759;53.396;6.722;2023-05-14T07:33:22;14.50;99.90
52895;DHT22;38759;53.396;6.722;2023-05-14T07:35:49;14.50;99.90
52895;DHT22;38759;53.396;6.722;2023-05-14T07:38:15;14.50;99.90
52895;DHT22;38759;53.396;6.722;2023-05-14T07:40:41;14.50;99.90
52895;DHT22;38759;53.396;6.722;2023-05-14T07:43:08;14.60;99.90
52895;DHT22;38759;53.396;6.722;2023-05-14T07:45:35;14.60;99.90
52895;DHT22;38759;53.396;6.722;2023-05-14T07:48:02;14.70;99.90
52895;DHT22;38759;53.396;6.722;2023-05-14T07:50:27;14.70;99.90
52895;DHT22;38759;53.396;6.722;2023-05-14T07:52:53;14.80;99.90
52895;DHT22;38759;53.396;6.722;2023-05-14T07:55:19;14.80;99.90
52895;DHT22;38759;53.396;6.722;2023-05-14T07:57:45;14.90;99.90
52895;DHT22;38759;53.396;6.722;2023-05-14T08:00:11;15.00;99.90
52895;DHT22;38759;53.396;6.722;2023-05-14T08:02:37;15.10;99.90
52895;DHT22;38759;53.396;6.722;2023-05-14T08:05:03;15.20;99.90
52895;DHT22;38759;53.396;6.722;2023-05-14T08:07:29;15.20;99.90
52895;DHT22;38759;53.396;6.722;2023-05-14T08:09:55;15.40;99.90
52895;DHT22;38759;53.396;6.722;2023-05-14T08:12:21;15.40;99.90
52895;DHT22;38759;53.396;6.722;2023-05-14T08:14:46;15.50;99.90
52895;DHT22;38759;53.396;6.722;2023-05-14T08:17:12;15.50;99.90
52895;DHT22;38759;53.396;6.722;2023-05-14T08:19:38;15.60;99.90
52895;DHT22;38759;53.396;6.722;2023-05-14T08:22:04;15.60;99.90
52895;DHT22;38759;53.396;6.722;2023-05-14T08:24:30;15.70;99.90
52895;DHT22;38759;53.396;6.722;2023-05-14T08:26:55;15.70;99.90
52895;DHT22;38759;53.396;6.722;2023-05-14T08:29:21;15.80;99.90
52895;DHT22;38759;53.396;6.722;2023-05-14T08:31:50;15.80;99.90
52895;DHT22;38759;53.396;6.722;2023-05-14T08:34:16;15.90;99.90
52895;DHT22;38759;53.396;6.722;2023-05-14T08:36:42;16.00;99.90
52895;DHT22;38759;53.396;6.722;2023-05-14T08:39:08;16.10;99.90
52895;DHT22;38759;53.396;6.722;2023-05-14T08:41:33;16.10;99.90
52895;DHT22;38759;53.396;6.722;2023-05-14T08:44:14;16.30;99.90
52895;DHT22;38759;53.396;6.722;2023-05-14T08:46:40;16.50;99.90
52895;DHT22;38759;53.396;6.722;2023-05-14T08:52:03;16.70;99.90
52895;DHT22;38759;53.396;6.722;2023-05-14T08:54:29;16.80;99.90
52895;DHT22;38759;53.396;6.722;2023-05-14T08:56:57;16.90;99.90
52895;DHT22;38759;53.396;6.722;2023-05-14T08:59:23;17.10;99.90
52895;DHT22;38759;53.396;6.722;2023-05-14T09:01:52;17.20;99.90
52895;DHT22;38759;53.396;6.722;2023-05-14T09:04:20;17.30;99.90
52895;DHT22;38759;53.396;6.722;2023-05-14T09:06:52;17.50;99.90
52895;DHT22;38759;53.396;6.722;2023-05-14T09:09:18;17.60;99.90
52895;DHT22;38759;53.396;6.722;2023-05-14T09:11:50;17.70;99.90
52895;DHT22;38759;53.396;6.722;2023-05-14T09:14:16;17.70;99.90
52895;DHT22;38759;53.396;6.722;2023-05-14T09:16:48;17.80;99.90
52895;DHT22;38759;53.396;6.722;2023-05-14T09:19:14;17.90;99.90
52895;DHT22;38759;53.396;6.722;2023-05-14T09:21:44;18.00;99.90
52895;DHT22;38759;53.396;6.722;2023-05-14T09:24:18;18.10;99.90
52895;DHT22;38759;53.396;6.722;2023-05-14T09:26:49;18.20;99.90
52895;DHT22;38759;53.396;6.722;2023-05-14T09:29:16;18.30;99.90
52895;DHT22;38759;53.396;6.722;2023-05-14T09:31:41;18.30;99.90
52895;DHT22;38759;53.396;6.722;2023-05-14T09:34:07;18.40;99.90
52895;DHT22;38759;53.396;6.722;2023-05-14T09:36:33;18.50;99.90
52895;DHT22;38759;53.396;6.722;2023-05-14T09:38:59;18.70;99.90
52895;DHT22;38759;53.396;6.722;2023-05-14T09:41:25;18.90;99.90
52895;DHT22;38759;53.396;6.722;2023-05-14T09:43:50;19.00;99.90
52895;DHT22;38759;53.396;6.722;2023-05-14T09:46:16;19.10;99.90
52895;DHT22;38759;53.396;6.722;2023-05-14T09:48:42;19.20;99.90
52895;DHT22;38759;53.396;6.722;2023-05-14T09:51:11;19.30;99.90
52895;DHT22;38759;53.396;6.722;2023-05-14T09:53:37;19.40;99.90
52895;DHT22;38759;53.396;6.722;2023-05-14T09:56:05;19.50;99.90
52895;DHT22;38759;53.396;6.722;2023-05-14T09:58:31;19.60;99.90
52895;DHT22;38759;53.396;6.722;2023-05-14T10:00:57;19.60;99.90
52895;DHT22;38759;53.396;6.722;2023-05-14T10:03:25;19.70;99.90
52895;DHT22;38759;53.396;6.722;2023-05-14T10:05:52;19.70;99.90
52895;DHT22;38759;53.396;6.722;2023-05-14T10:08:32;19.80;99.90
52895;DHT22;38759;53.396;6.722;2023-05-14T10:10:58;19.90;99.90
52895;DHT22;38759;53.396;6.722;2023-05-14T10:13:38;20.00;99.90
52895;DHT22;38759;53.396;6.722;2023-05-14T10:16:11;20.10;99.90
52895;DHT22;38759;53.396;6.722;2023-05-14T10:18:43;20.20;99.90
52895;DHT22;38759;53.396;6.722;2023-05-14T10:21:13;20.20;99.90
52895;DHT22;38759;53.396;6.722;2023-05-14T10:23:40;20.30;99.90
52895;DHT22;38759;53.396;6.722;2023-05-14T10:26:07;20.20;99.90
52895;DHT22;38759;53.396;6.722;2023-05-14T10:28:33;20.00;99.90
52895;DHT22;38759;53.396;6.722;2023-05-14T10:30:59;19.90;99.90
52895;DHT22;38759;53.396;6.722;2023-05-14T10:33:26;19.80;99.90
52895;DHT22;38759;53.396;6.722;2023-05-14T10:36:03;19.90;99.90
52895;DHT22;38759;53.396;6.722;2023-05-14T10:38:34;19.80;99.90
52895;DHT22;38759;53.396;6.722;2023-05-14T10:41:06;19.80;99.90
52895;DHT22;38759;53.396;6.722;2023-05-14T10:43:39;19.80;99.90
52895;DHT22;38759;53.396;6.722;2023-05-14T10:46:05;20.10;99.90
52895;DHT22;38759;53.396;6.722;2023-05-14T10:48:32;20.20;99.90
52895;DHT22;38759;53.396;6.722;2023-05-14T10:50:58;20.50;99.90
52895;DHT22;38759;53.396;6.722;2023-05-14T10:53:36;20.70;99.90
52895;DHT22;38759;53.396;6.722;2023-05-14T10:56:07;20.90;99.90
52895;DHT22;38759;53.396;6.722;2023-05-14T10:58:41;21.10;99.90
52895;DHT22;38759;53.396;6.722;2023-05-14T11:01:08;21.20;99.90
52895;DHT22;38759;53.396;6.722;2023-05-14T11:03:42;21.40;99.90
52895;DHT22;38759;53.396;6.722;2023-05-14T11:06:10;21.60;99.90
52895;DHT22;38759;53.396;6.722;2023-05-14T11:08:36;21.70;99.90
52895;DHT22;38759;53.396;6.722;2023-05-14T11:11:03;21.80;99.90
52895;DHT22;38759;53.396;6.722;2023-05-14T11:13:29;22.00;99.90
52895;DHT22;38759;53.396;6.722;2023-05-14T11:15:55;22.10;99.90
52895;DHT22;38759;53.396;6.722;2023-05-14T11:18:28;22.20;99.90
52895;DHT22;38759;53.396;6.722;2023-05-14T11:21:01;22.40;99.90
52895;DHT22;38759;53.396;6.722;2023-05-14T11:23:27;22.60;99.90
52895;DHT22;38759;53.396;6.722;2023-05-14T11:25:54;22.60;99.90
52895;DHT22;38759;53.396;6.722;2023-05-14T11:28:25;22.50;99.90
52895;DHT22;38759;53.396;6.722;2023-05-14T11:30:52;22.40;99.90
52895;DHT22;38759;53.396;6.722;2023-05-14T11:33:19;22.50;99.90
52895;DHT22;38759;53.396;6.722;2023-05-14T11:35:46;22.60;99.90
52895;DHT22;38759;53.396;6.722;2023-05-14T11:38:22;22.70;99.90
52895;DHT22;38759;53.396;6.722;2023-05-14T11:40:52;22.70;99.90
52895;DHT22;38759;53.396;6.722;2023-05-14T11:43:18;22.70;99.90
52895;DHT22;38759;53.396;6.722;2023-05-14T11:45:49;22.70;99.90
52895;DHT22;38759;53.396;6.722;2023-05-14T11:48:15;22.60;99.90
52895;DHT22;38759;53.396;6.722;2023-05-14T11:50:51;22.70;99.90
52895;DHT22;38759;53.396;6.722;2023-05-14T11:53:17;22.80;99.90
52895;DHT22;38759;53.396;6.722;2023-05-14T11:55:44;22.90;99.90
52895;DHT22;38759;53.396;6.722;2023-05-14T11:58:11;22.90;99.90
52895;DHT22;38759;53.396;6.722;2023-05-14T12:00:37;23.00;99.90
52895;DHT22;38759;53.396;6.722;2023-05-14T12:03:04;23.10;99.90
52895;DHT22;38759;53.396;6.722;2023-05-14T12:05:30;23.00;99.90
52895;DHT22;38759;53.396;6.722;2023-05-14T12:07:55;23.10;99.90
52895;DHT22;38759;53.396;6.722;2023-05-14T12:10:21;23.10;99.90
52895;DHT22;38759;53.396;6.722;2023-05-14T12:12:47;23.00;99.90
52895;DHT22;38759;53.396;6.722;2023-05-14T12:15:14;23.00;99.90
52895;DHT22;38759;53.396;6.722;2023-05-14T12:17:40;23.00;99.90
52895;DHT22;38759;53.396;6.722;2023-05-14T12:20:10;22.90;99.90
52895;DHT22;38759;53.396;6.722;2023-05-14T12:22:37;22.90;99.90
52895;DHT22;38759;53.396;6.722;2023-05-14T12:25:02;22.90;99.90
52895;DHT22;38759;53.396;6.722;2023-05-14T12:27:28;22.90;99.90
52895;DHT22;38759;53.396;6.722;2023-05-14T12:30:05;22.90;99.90
52895;DHT22;38759;53.396;6.722;2023-05-14T12:32:32;23.00;99.90
52895;DHT22;38759;53.396;6.722;2023-05-14T12:34:58;23.10;99.90
52895;DHT22;38759;53.396;6.722;2023-05-14T12:37:24;23.10;99.90
52895;DHT22;38759;53.396;6.722;2023-05-14T12:39:49;23.10;99.90
52895;DHT22;38759;53.396;6.722;2023-05-14T12:42:15;23.10;99.90
52895;DHT22;38759;53.396;6.722;2023-05-14T12:44:41;23.00;99.90
52895;DHT22;38759;53.396;6.722;2023-05-14T12:47:06;22.90;99.90
52895;DHT22;38759;53.396;6.722;2023-05-14T12:49:32;22.90;99.90
52895;DHT22;38759;53.396;6.722;2023-05-14T12:51:58;22.90;99.90
52895;DHT22;38759;53.396;6.722;2023-05-14T12:54:24;23.00;99.90
52895;DHT22;38759;53.396;6.722;2023-05-14T12:56:49;22.90;99.90
52895;DHT22;38759;53.396;6.722;2023-05-14T12:59:15;23.00;99.90
52895;DHT22;38759;53.396;6.722;2023-05-14T13:01:41;22.90;99.90
52895;DHT22;38759;53.396;6.722;2023-05-14T13:04:08;22.80;99.90
52895;DHT22;38759;53.396;6.722;2023-05-14T13:06:39;22.80;99.90
52895;DHT22;38759;53.396;6.722;2023-05-14T13:09:05;22.70;99.90
52895;DHT22;38759;53.396;6.722;2023-05-14T13:11:32;22.70;99.90
52895;DHT22;38759;53.396;6.722;2023-05-14T13:13:58;22.60;99.90
52895;DHT22;38759;53.396;6.722;2023-05-14T13:16:27;22.60;99.90
52895;DHT22;38759;53.396;6.722;2023-05-14T13:18:53;22.60;99.90
52895;DHT22;38759;53.396;6.722;2023-05-14T13:21:20;22.50;99.90
52895;DHT22;38759;53.396;6.722;2023-05-14T13:23:46;22.50;99.90
52895;DHT22;38759;53.396;6.722;2023-05-14T13:26:12;22.60;99.90
52895;DHT22;38759;53.396;6.722;2023-05-14T13:28:38;22.60;99.90
52895;DHT22;38759;53.396;6.722;2023-05-14T13:31:11;22.70;99.90
52895;DHT22;38759;53.396;6.722;2023-05-14T13:33:41;22.70;99.90
52895;DHT22;38759;53.396;6.722;2023-05-14T13:36:08;22.70;99.90
52895;DHT22;38759;53.396;6.722;2023-05-14T13:38:34;22.70;99.90
52895;DHT22;38759;53.396;6.722;2023-05-14T13:41:00;22.70;99.90
52895;DHT22;38759;53.396;6.722;2023-05-14T13:43:33;22.60;99.90
52895;DHT22;38759;53.396;6.722;2023-05-14T13:46:00;22.50;99.90
52895;DHT22;38759;53.396;6.722;2023-05-14T13:48:26;22.50;99.90
52895;DHT22;38759;53.396;6.722;2023-05-14T13:50:52;22.60;99.90
52895;DHT22;38759;53.396;6.722;2023-05-14T13:53:19;22.50;99.90
52895;DHT22;38759;53.396;6.722;2023-05-14T13:55:45;22.60;99.90
52895;DHT22;38759;53.396;6.722;2023-05-14T13:58:10;22.50;99.90
52895;DHT22;38759;53.396;6.722;2023-05-14T14:00:36;22.50;99.90
52895;DHT22;38759;53.396;6.722;2023-05-14T14:03:02;22.40;99.90
52895;DHT22;38759;53.396;6.722;2023-05-14T14:05:27;22.50;99.90
52895;DHT22;38759;53.396;6.722;2023-05-14T14:07:54;22.50;99.90
52895;DHT22;38759;53.396;6.722;2023-05-14T14:10:20;22.40;99.90
52895;DHT22;38759;53.396;6.722;2023-05-14T14:12:46;22.40;99.90
52895;DHT22;38759;53.396;6.722;2023-05-14T14:15:12;22.30;99.90
52895;DHT22;38759;53.396;6.722;2023-05-14T14:17:38;22.20;99.90
52895;DHT22;38759;53.396;6.722;2023-05-14T14:20:07;22.20;99.90
52895;DHT22;38759;53.396;6.722;2023-05-14T14:22:33;22.10;99.90
52895;DHT22;38759;53.396;6.722;2023-05-14T14:24:58;22.00;99.90
52895;DHT22;38759;53.396;6.722;2023-05-14T14:27:24;22.00;99.90
52895;DHT22;38759;53.396;6.722;2023-05-14T14:29:50;21.90;99.90
52895;DHT22;38759;53.396;6.722;2023-05-14T14:32:16;21.90;99.90
52895;DHT22;38759;53.396;6.722;2023-05-14T14:34:41;21.80;99.90
52895;DHT22;38759;53.396;6.722;2023-05-14T14:37:07;21.70;99.90
52895;DHT22;38759;53.396;6.722;2023-05-14T14:39:33;21.60;99.90
52895;DHT22;38759;53.396;6.722;2023-05-14T14:41:58;21.50;99.90
52895;DHT22;38759;53.396;6.722;2023-05-14T14:44:24;21.50;99.90
52895;DHT22;38759;53.396;6.722;2023-05-14T14:46:50;21.50;99.90
52895;DHT22;38759;53.396;6.722;2023-05-14T14:49:15;21.50;99.90
52895;DHT22;38759;53.396;6.722;2023-05-14T14:51:41;21.50;99.90
52895;DHT22;38759;53.396;6.722;2023-05-14T14:54:07;21.50;99.90
52895;DHT22;38759;53.396;6.722;2023-05-14T14:56:32;21.40;99.90
52895;DHT22;38759;53.396;6.722;2023-05-14T14:58:58;21.40;99.90
52895;DHT22;38759;53.396;6.722;2023-05-14T15:01:24;21.40;99.90
52895;DHT22;38759;53.396;6.722;2023-05-14T15:03:49;21.30;99.90
52895;DHT22;38759;53.396;6.722;2023-05-14T15:06:15;21.30;99.90
52895;DHT22;38759;53.396;6.722;2023-05-14T15:08:41;21.40;99.90
52895;DHT22;38759;53.396;6.722;2023-05-14T15:11:07;21.40;99.90
52895;DHT22;38759;53.396;6.722;2023-05-14T15:13:33;21.40;99.90
52895;DHT22;38759;53.396;6.722;2023-05-14T15:15:58;21.40;99.90
52895;DHT22;38759;53.396;6.722;2023-05-14T15:18:24;21.40;99.90
52895;DHT22;38759;53.396;6.722;2023-05-14T15:20:50;21.40;99.90
52895;DHT22;38759;53.396;6.722;2023-05-14T15:23:17;21.40;99.90
52895;DHT22;38759;53.396;6.722;2023-05-14T15:25:43;21.40;99.90
52895;DHT22;38759;53.396;6.722;2023-05-14T15:28:08;21.40;99.90
52895;DHT22;38759;53.396;6.722;2023-05-14T15:30:34;21.30;99.90
52895;DHT22;38759;53.396;6.722;2023-05-14T15:33:00;21.20;99.90